createdAt,value
2022-09-03T00:00:19.783Z,16.26
2022-09-03T00:01:19.861Z,16.24
2022-09-03T00:02:19.742Z,16.16
2022-09-03T00:03:19.787Z,16.1
2022-09-03T00:04:28.293Z,16.13
2022-09-03T00:05:19.736Z,16.13
2022-09-03T00:06:19.783Z,15.98
2022-09-03T00:07:19.739Z,15.91
2022-09-03T00:08:19.864Z,15.87
2022-09-03T00:09:19.983Z,15.81
2022-09-03T00:10:22.682Z,15.87
2022-09-03T00:11:20.213Z,15.85
2022-09-03T00:12:19.761Z,15.83
2022-09-03T00:13:19.754Z,15.76
2022-09-03T00:14:19.761Z,15.81
2022-09-03T00:15:19.756Z,15.87
2022-09-03T00:16:20.092Z,15.87
2022-09-03T00:17:19.766Z,15.85
2022-09-03T00:18:19.955Z,15.84
2022-09-03T00:19:19.769Z,15.78
2022-09-03T00:20:19.766Z,15.76
2022-09-03T00:21:22.805Z,15.7
2022-09-03T00:22:19.766Z,15.76
2022-09-03T00:23:19.778Z,15.66
2022-09-03T00:24:19.854Z,15.54
2022-09-03T00:25:19.784Z,15.67
2022-09-03T00:26:19.818Z,15.6
2022-09-03T00:27:19.776Z,15.6
2022-09-03T00:28:19.836Z,15.6
2022-09-03T00:29:19.785Z,15.54
2022-09-03T00:30:24.384Z,15.59
2022-09-03T00:31:20.004Z,15.5
2022-09-03T00:32:22.867Z,15.57
2022-09-03T00:33:19.782Z,15.54
2022-09-03T00:34:19.815Z,15.55
2022-09-03T00:35:19.802Z,15.54
2022-09-03T00:36:19.836Z,15.55
2022-09-03T00:37:21.034Z,15.51
2022-09-03T00:38:19.933Z,15.45
2022-09-03T00:39:19.909Z,15.55
2022-09-03T00:40:19.797Z,15.51
2022-09-03T00:41:19.802Z,15.44
2022-09-03T00:42:19.808Z,15.47
2022-09-03T00:43:22.728Z,15.39
2022-09-03T00:44:19.809Z,15.52
2022-09-03T00:45:19.805Z,15.52
2022-09-03T00:49:19.832Z,15.35
2022-09-03T00:50:19.828Z,15.35
2022-09-03T00:51:19.831Z,15.43
2022-09-03T00:52:20.451Z,15.32
2022-09-03T00:53:19.858Z,15.3
2022-09-03T00:54:22.858Z,15.23
2022-09-03T00:55:19.833Z,15.23
2022-09-03T00:56:19.854Z,15.25
2022-09-03T00:57:19.876Z,15.29
2022-09-03T00:58:19.904Z,15.29
2022-09-03T00:59:19.889Z,15.26
2022-09-03T01:00:19.857Z,15.29
2022-09-03T01:01:20.301Z,15.18
2022-09-03T01:02:20.446Z,15.17
2022-09-03T01:03:19.889Z,15.23
2022-09-03T01:04:19.893Z,14.99
2022-09-03T01:05:22.590Z,15.1
2022-09-03T01:06:21.167Z,15.17
2022-09-03T01:07:19.884Z,15.1
2022-09-03T01:08:19.859Z,14.94
2022-09-03T01:09:19.874Z,15.1
2022-09-03T01:10:19.886Z,14.99
2022-09-03T01:11:19.861Z,15.04
2022-09-03T01:12:20.850Z,15.02
2022-09-03T01:13:19.855Z,14.96
2022-09-03T01:14:19.868Z,14.93
2022-09-03T01:15:19.858Z,14.94
2022-09-03T01:16:23.236Z,15.02
2022-09-03T01:17:19.860Z,15.08
2022-09-03T01:18:20.077Z,14.97
2022-09-03T01:19:19.879Z,14.97
2022-09-03T01:20:19.871Z,15.08
2022-09-03T01:21:19.869Z,15
2022-09-03T01:22:19.872Z,15.12
2022-09-03T01:23:19.874Z,15.14
2022-09-03T01:24:19.889Z,15.05
2022-09-03T01:25:19.927Z,14.96
2022-09-03T01:26:19.871Z,14.93
2022-09-03T01:27:21.065Z,14.92
2022-09-03T01:28:19.981Z,14.89
2022-09-03T01:29:19.905Z,14.87
2022-09-03T01:30:19.883Z,14.96
2022-09-03T01:31:20.112Z,14.78
2022-09-03T01:32:19.909Z,14.9
2022-09-03T01:33:19.884Z,14.89
2022-09-03T01:34:19.906Z,14.87
2022-09-03T01:35:19.938Z,14.82
2022-09-03T01:36:19.888Z,14.86
2022-09-03T01:37:19.901Z,14.96
2022-09-03T01:38:22.937Z,14.85
2022-09-03T01:39:20.012Z,14.82
2022-09-03T01:40:19.905Z,14.77
2022-09-03T01:41:19.915Z,14.79
2022-09-03T01:42:24.921Z,14.87
2022-09-03T01:43:22.708Z,14.92
2022-09-03T01:44:19.939Z,14.92
2022-09-03T01:45:19.908Z,14.86
2022-09-03T01:46:21.669Z,14.79
2022-09-03T01:47:19.911Z,14.74
2022-09-03T01:48:20.077Z,14.74
2022-09-03T01:49:19.929Z,14.85
2022-09-03T01:50:19.963Z,14.7
2022-09-03T01:51:19.925Z,14.71
2022-09-03T01:52:19.916Z,14.71
2022-09-03T01:53:20.036Z,14.55
2022-09-03T01:54:26.022Z,14.58
2022-09-03T01:55:19.922Z,14.48
2022-09-03T01:56:19.936Z,14.56
2022-09-03T01:57:40.026Z,14.44
2022-09-03T01:58:19.995Z,14.55
2022-09-03T01:59:19.965Z,14.56
2022-09-03T02:00:19.946Z,14.38
2022-09-03T02:01:22.746Z,14.45
2022-09-03T02:02:20.174Z,14.45
2022-09-03T02:03:19.943Z,14.49
2022-09-03T02:04:19.960Z,14.52
2022-09-03T02:05:19.950Z,14.59
2022-09-03T02:06:19.955Z,14.58
2022-09-03T02:07:19.955Z,14.53
2022-09-03T02:08:20.078Z,14.37
2022-09-03T02:09:20.849Z,14.37
2022-09-03T02:10:20.101Z,14.31
2022-09-03T02:11:20.598Z,14.34
2022-09-03T02:12:19.970Z,14.33
2022-09-03T02:13:19.959Z,14.26
2022-09-03T02:14:19.975Z,14.33
2022-09-03T02:15:21.455Z,14.33
2022-09-03T02:16:20.375Z,14.43
2022-09-03T02:17:19.975Z,14.34
2022-09-03T02:18:20.119Z,14.43
2022-09-03T02:19:19.985Z,14.4
2022-09-03T02:20:19.977Z,14.25
2022-09-03T02:21:22.565Z,14.3
2022-09-03T02:22:19.976Z,14.33
2022-09-03T02:23:19.971Z,14.33
2022-09-03T02:24:20.025Z,14.26
2022-09-03T02:25:19.983Z,14.22
2022-09-03T02:26:22.742Z,14.22
2022-09-03T02:27:20.002Z,14.19
2022-09-03T02:28:21.675Z,14.28
2022-09-03T02:29:19.989Z,14.23
2022-09-03T02:30:19.995Z,14.31
2022-09-03T02:31:20.257Z,14.19
2022-09-03T02:32:23.107Z,14.23
2022-09-03T02:33:19.988Z,14.26
2022-09-03T02:34:20.022Z,14.22
2022-09-03T02:35:19.997Z,14.19
2022-09-03T02:36:19.991Z,14.05
2022-09-03T02:37:22.898Z,14.18
2022-09-03T02:38:20.251Z,14.16
2022-09-03T02:39:20.181Z,14.03
2022-09-03T02:40:20.013Z,14
2022-09-03T02:41:20.048Z,14.03
2022-09-03T02:42:20.011Z,14.03
2022-09-03T02:43:20.011Z,14
2022-09-03T02:44:20.022Z,13.95
2022-09-03T02:45:20.072Z,14
2022-09-03T02:46:20.380Z,14.05
2022-09-03T02:47:20.024Z,13.98
2022-09-03T02:48:23.335Z,13.91
2022-09-03T02:49:20.045Z,13.93
2022-09-03T02:50:20.017Z,13.8
2022-09-03T02:51:20.029Z,13.97
2022-09-03T02:52:20.031Z,13.95
2022-09-03T02:53:20.025Z,14.03
2022-09-03T02:54:26.175Z,14.01
2022-09-03T02:55:20.052Z,13.95
2022-09-03T02:56:20.028Z,14.01
2022-09-03T02:57:30.006Z,14.03
2022-09-03T02:58:20.197Z,13.97
2022-09-03T02:59:22.807Z,14.07
2022-09-03T03:00:20.047Z,14.08
2022-09-03T03:01:28.582Z,14.05
2022-09-03T03:02:20.246Z,14
2022-09-03T03:03:20.137Z,13.97
2022-09-03T03:04:20.044Z,13.94
2022-09-03T03:05:20.071Z,14
2022-09-03T03:06:20.046Z,14.05
2022-09-03T03:07:20.060Z,14
2022-09-03T03:08:20.171Z,14.11
2022-09-03T03:09:20.090Z,14.07
2022-09-03T03:10:23.101Z,14.08
2022-09-03T03:11:20.056Z,14.13
2022-09-03T03:12:20.094Z,14.18
2022-09-03T03:13:20.080Z,14.07
2022-09-03T03:14:20.071Z,14.05
2022-09-03T03:15:20.081Z,14.11
2022-09-03T03:16:20.300Z,14.15
2022-09-03T03:17:20.075Z,14.04
2022-09-03T03:18:20.124Z,14.01
2022-09-03T03:19:20.074Z,14.01
2022-09-03T03:20:20.107Z,14.08
2022-09-03T03:21:22.866Z,14.03
2022-09-03T03:22:20.070Z,14.03
2022-09-03T03:23:20.077Z,14.03
2022-09-03T03:24:20.075Z,14.05
2022-09-03T03:25:21.598Z,14.04
2022-09-03T03:26:20.075Z,14.05
2022-09-03T03:27:20.093Z,14.04
2022-09-03T03:28:20.148Z,14
2022-09-03T03:29:20.084Z,14.07
2022-09-03T03:30:20.114Z,14.05
2022-09-03T03:31:20.329Z,14.01
2022-09-03T03:32:23.254Z,14.08
2022-09-03T03:33:20.087Z,14.05
2022-09-03T03:34:20.103Z,14.03
2022-09-03T03:35:20.121Z,14.07
2022-09-03T03:36:20.105Z,14.04
2022-09-03T03:37:20.100Z,14.03
2022-09-03T03:38:20.220Z,14
2022-09-03T03:39:20.245Z,14.03
2022-09-03T03:40:20.130Z,13.89
2022-09-03T03:41:20.103Z,13.98
2022-09-03T03:42:20.109Z,13.94
2022-09-03T03:43:23.135Z,13.94
2022-09-03T03:44:20.108Z,14.03
2022-09-03T03:45:20.149Z,14.03
2022-09-03T03:46:20.398Z,14.11
2022-09-03T03:47:20.122Z,14.03
2022-09-03T03:48:20.604Z,14
2022-09-03T03:49:20.118Z,14.07
2022-09-03T03:50:20.142Z,14.03
2022-09-03T03:51:20.120Z,14.03
2022-09-03T03:52:20.132Z,14.01
2022-09-03T03:53:20.123Z,14.01
2022-09-03T03:54:25.309Z,14.12
2022-09-03T03:55:20.575Z,14.12
2022-09-03T03:56:20.139Z,13.97
2022-09-03T03:57:20.135Z,14.01
2022-09-03T03:58:20.225Z,14.01
2022-09-03T03:59:20.144Z,13.94
2022-09-03T04:00:20.161Z,13.94
2022-09-03T04:01:20.251Z,14.05
2022-09-03T04:02:20.383Z,13.97
2022-09-03T04:03:20.175Z,13.91
2022-09-03T04:04:20.172Z,13.91
2022-09-03T04:05:31.786Z,13.87
2022-09-03T04:06:20.752Z,13.79
2022-09-03T04:07:20.180Z,13.86
2022-09-03T04:08:20.272Z,13.93
2022-09-03T04:09:20.201Z,13.93
2022-09-03T04:10:21.491Z,13.94
2022-09-03T04:11:20.179Z,13.94
2022-09-03T04:12:20.193Z,14.01
2022-09-03T04:13:20.170Z,14
2022-09-03T04:14:20.172Z,13.95
2022-09-03T04:15:20.195Z,14.01
2022-09-03T04:16:20.398Z,13.97
2022-09-03T04:17:25.327Z,13.94
2022-09-03T04:18:20.309Z,13.95
2022-09-03T04:19:20.207Z,13.95
2022-09-03T04:20:20.218Z,13.86
2022-09-03T04:21:23.293Z,13.89
2022-09-03T04:22:20.174Z,13.93
2022-09-03T04:23:20.180Z,13.94
2022-09-03T04:24:20.178Z,13.93
2022-09-03T04:25:20.196Z,13.95
2022-09-03T04:26:20.187Z,13.91
2022-09-03T04:27:20.182Z,13.95
2022-09-03T04:28:20.321Z,13.89
2022-09-03T04:29:20.193Z,13.85
2022-09-03T04:30:20.589Z,13.86
2022-09-03T04:31:20.519Z,13.93
2022-09-03T04:32:20.189Z,13.78
2022-09-03T04:33:20.879Z,13.73
2022-09-03T04:34:20.195Z,13.76
2022-09-03T04:35:20.203Z,13.79
2022-09-03T04:36:20.202Z,13.83
2022-09-03T04:37:20.196Z,13.78
2022-09-03T04:38:20.233Z,13.83
2022-09-03T04:39:20.319Z,13.85
2022-09-03T04:40:21.257Z,13.86
2022-09-03T04:41:20.222Z,13.87
2022-09-03T04:42:20.211Z,13.83
2022-09-03T04:43:20.211Z,13.78
2022-09-03T04:44:20.223Z,13.71
2022-09-03T04:45:20.213Z,13.85
2022-09-03T04:46:22.264Z,13.82
2022-09-03T04:47:20.211Z,13.85
2022-09-03T04:48:23.449Z,13.87
2022-09-03T04:49:20.216Z,13.82
2022-09-03T04:50:20.225Z,13.95
2022-09-03T04:51:20.219Z,13.85
2022-09-03T04:52:20.220Z,13.98
2022-09-03T04:53:23.042Z,13.94
2022-09-03T04:54:20.224Z,13.94
2022-09-03T04:55:20.224Z,13.95
2022-09-03T04:56:20.242Z,13.94
2022-09-03T04:57:20.235Z,13.97
2022-09-03T04:58:20.302Z,13.87
2022-09-03T04:59:23.240Z,13.8
2022-09-03T05:00:22.170Z,14
2022-09-03T05:01:20.475Z,13.89
2022-09-03T05:02:20.515Z,13.98
2022-09-03T05:03:20.245Z,13.94
2022-09-03T05:04:23.045Z,13.91
2022-09-03T05:05:20.252Z,13.94
2022-09-03T05:06:20.249Z,13.91
2022-09-03T05:07:22.667Z,13.94
2022-09-03T05:08:21.332Z,14.07
2022-09-03T05:09:20.254Z,14.07
2022-09-03T05:10:20.259Z,13.94
2022-09-03T05:11:20.259Z,14.05
2022-09-03T05:12:20.264Z,14.12
2022-09-03T05:13:21.015Z,14.19
2022-09-03T05:14:20.259Z,14.18
2022-09-03T05:15:24.070Z,14.18
2022-09-03T05:16:20.507Z,14.2
2022-09-03T05:17:20.270Z,14.2
2022-09-03T05:18:20.353Z,14.19
2022-09-03T05:19:20.270Z,14.31
2022-09-03T05:20:20.279Z,14.25
2022-09-03T05:21:20.289Z,14.25
2022-09-03T05:22:20.269Z,14.41
2022-09-03T05:23:20.276Z,14.4
2022-09-03T05:24:20.287Z,14.37
2022-09-03T05:25:20.276Z,14.4
2022-09-03T05:26:23.109Z,14.38
2022-09-03T05:27:20.291Z,14.36
2022-09-03T05:28:20.372Z,14.43
2022-09-03T05:29:20.285Z,14.45
2022-09-03T05:30:20.295Z,14.52
2022-09-03T05:31:20.504Z,14.48
2022-09-03T05:32:20.307Z,14.55
2022-09-03T05:33:20.292Z,14.61
2022-09-03T05:34:21.019Z,14.56
2022-09-03T05:35:24.140Z,14.63
2022-09-03T05:36:20.302Z,14.67
2022-09-03T05:37:23.138Z,14.61
2022-09-03T05:38:20.370Z,14.7
2022-09-03T05:39:20.449Z,14.74
2022-09-03T05:40:20.306Z,14.79
2022-09-03T05:41:21.387Z,14.89
2022-09-03T05:42:20.313Z,14.85
2022-09-03T05:43:20.304Z,14.92
2022-09-03T05:44:20.308Z,14.97
2022-09-03T05:45:20.358Z,14.92
2022-09-03T05:46:20.347Z,14.97
2022-09-03T05:47:20.314Z,14.93
2022-09-03T05:48:23.708Z,15.05
2022-09-03T05:49:20.317Z,15
2022-09-03T05:50:20.323Z,15.14
2022-09-03T05:51:20.347Z,15.27
2022-09-03T05:52:20.323Z,15.18
2022-09-03T05:53:20.404Z,15.32
2022-09-03T05:54:20.357Z,15.36
2022-09-03T05:55:22.030Z,15.44
2022-09-03T05:56:20.400Z,15.41
2022-09-03T05:57:20.330Z,15.48
2022-09-03T05:58:20.332Z,15.44
2022-09-03T05:59:23.145Z,15.45
2022-09-03T06:00:20.339Z,15.57
2022-09-03T06:01:20.410Z,15.55
2022-09-03T06:02:24.644Z,15.59
2022-09-03T06:03:21.016Z,15.69
2022-09-03T06:04:20.362Z,15.69
2022-09-03T06:05:20.345Z,15.67
2022-09-03T06:06:20.381Z,15.69
2022-09-03T06:07:20.355Z,15.75
2022-09-03T06:08:20.353Z,15.69
2022-09-03T06:09:20.394Z,15.66
2022-09-03T06:10:32.511Z,15.78
2022-09-03T06:11:20.373Z,15.81
2022-09-03T06:12:20.366Z,15.88
2022-09-03T06:13:20.412Z,15.91
2022-09-03T06:14:20.364Z,16.1
2022-09-03T06:15:20.362Z,16.29
2022-09-03T06:16:30.801Z,16.36
2022-09-03T06:17:20.377Z,16.34
2022-09-03T06:18:20.376Z,16.51
2022-09-03T06:19:20.377Z,16.54
2022-09-03T06:20:20.371Z,16.66
2022-09-03T06:21:23.435Z,16.74
2022-09-03T06:22:20.374Z,16.86
2022-09-03T06:23:20.383Z,16.89
2022-09-03T06:24:20.610Z,17.04
2022-09-03T06:25:20.383Z,16.99
2022-09-03T06:26:20.402Z,16.89
2022-09-03T06:27:20.892Z,16.92
2022-09-03T06:28:26.655Z,17.12
2022-09-03T06:29:20.381Z,17.1
2022-09-03T06:30:20.402Z,17.05
2022-09-03T06:31:20.582Z,17.04
2022-09-03T06:32:23.396Z,17.12
2022-09-03T06:33:20.480Z,17.05
2022-09-03T06:34:20.408Z,16.87
2022-09-03T06:35:20.444Z,16.97
2022-09-03T06:36:20.422Z,16.89
2022-09-03T06:37:23.425Z,16.91
2022-09-03T06:38:20.501Z,16.92
2022-09-03T06:39:20.483Z,16.92
2022-09-03T06:40:20.399Z,16.91
2022-09-03T06:41:20.415Z,16.92
2022-09-03T06:42:20.411Z,16.8
2022-09-03T06:43:20.403Z,16.8
2022-09-03T06:44:20.419Z,16.83
2022-09-03T06:45:20.449Z,16.87
2022-09-03T06:46:20.487Z,16.86
2022-09-03T06:47:20.418Z,16.82
2022-09-03T06:48:23.249Z,16.87
2022-09-03T06:49:20.427Z,17.09
2022-09-03T06:50:20.420Z,17.05
2022-09-03T06:51:20.440Z,17.34
2022-09-03T06:52:20.487Z,17.42
2022-09-03T06:53:20.431Z,17.52
2022-09-03T06:54:20.431Z,17.35
2022-09-03T06:55:20.428Z,17.46
2022-09-03T06:56:20.443Z,17.56
2022-09-03T06:57:20.439Z,17.52
2022-09-03T06:58:20.586Z,17.46
2022-09-03T06:59:20.620Z,17.47
2022-09-03T07:00:20.450Z,17.39
2022-09-03T07:01:21.062Z,17.54
2022-09-03T07:02:21.052Z,17.59
2022-09-03T07:03:20.439Z,17.65
2022-09-03T07:04:22.574Z,17.75
2022-09-03T07:05:20.458Z,17.79
2022-09-03T07:06:20.466Z,17.8
2022-09-03T07:07:20.455Z,18.13
2022-09-03T07:08:20.476Z,18.11
2022-09-03T07:09:20.832Z,18.27
2022-09-03T07:10:20.457Z,18.53
2022-09-03T07:11:20.490Z,18.86
2022-09-03T07:12:20.470Z,19.09
2022-09-03T07:13:20.461Z,19.6
2022-09-03T07:14:20.468Z,19.72
2022-09-03T07:15:23.490Z,20
2022-09-03T07:16:20.611Z,20.11
2022-09-03T07:17:20.477Z,20.11
2022-09-03T07:18:20.563Z,20.34
2022-09-03T07:19:20.492Z,20.74
2022-09-03T07:20:23.342Z,21.14
2022-09-03T07:21:20.552Z,21.26
2022-09-03T07:22:20.480Z,21.28
2022-09-03T07:23:20.489Z,21.38
2022-09-03T07:24:20.671Z,21.32
2022-09-03T07:25:20.493Z,21.4
2022-09-03T07:26:23.753Z,21.37
2022-09-03T07:27:20.491Z,21.47
2022-09-03T07:28:21.282Z,21.54
2022-09-03T07:29:21.274Z,21.56
2022-09-03T07:30:20.502Z,21.5
2022-09-03T07:31:23.737Z,21.48
2022-09-03T07:32:20.571Z,21.33
2022-09-03T07:33:20.501Z,21.44
2022-09-03T07:34:20.537Z,21.32
2022-09-03T07:35:20.505Z,21.05
2022-09-03T07:36:21.654Z,21.05
2022-09-03T07:37:20.528Z,20.93
2022-09-03T07:38:20.486Z,20.75
2022-09-03T07:39:20.820Z,20.71
2022-09-03T07:40:20.518Z,20.52
2022-09-03T07:41:31.591Z,20.58
2022-09-03T07:42:23.418Z,20.22
2022-09-03T07:43:20.540Z,20.27
2022-09-03T07:44:20.783Z,20.15
2022-09-03T07:45:20.520Z,20.24
2022-09-03T07:46:20.682Z,20.12
2022-09-03T07:47:29.335Z,19.93
2022-09-03T07:48:20.627Z,19.9
2022-09-03T07:49:20.532Z,19.9
2022-09-03T07:50:20.600Z,19.71
2022-09-03T07:51:20.533Z,19.79
2022-09-03T07:52:22.888Z,19.74
2022-09-03T07:53:23.307Z,19.85
2022-09-03T07:54:20.536Z,19.79
2022-09-03T07:55:20.535Z,19.93
2022-09-03T07:56:20.539Z,20
2022-09-03T07:57:20.560Z,20.07
2022-09-03T07:58:20.595Z,20.37
2022-09-03T07:59:20.896Z,20.68
2022-09-03T08:00:20.565Z,20.86
2022-09-03T08:01:20.809Z,21.1
2022-09-03T08:02:20.574Z,21.3
2022-09-03T08:03:20.548Z,21.45
2022-09-03T08:04:23.794Z,21.59
2022-09-03T08:05:20.579Z,21.74
2022-09-03T08:06:20.579Z,21.94
2022-09-03T08:07:20.567Z,21.96
2022-09-03T08:08:22.104Z,22
2022-09-03T08:09:20.559Z,22.23
2022-09-03T08:10:20.585Z,22.34
2022-09-03T08:11:20.569Z,22.25
2022-09-03T08:12:20.586Z,22.51
2022-09-03T08:13:20.578Z,22.78
2022-09-03T08:14:20.580Z,23.01
2022-09-03T08:15:23.473Z,23.18
2022-09-03T08:16:20.794Z,23.28
2022-09-03T08:17:20.599Z,23.25
2022-09-03T08:18:20.647Z,23.14
2022-09-03T08:19:20.891Z,23.06
2022-09-03T08:20:20.580Z,23.2
2022-09-03T08:21:20.585Z,23.2
2022-09-03T08:22:20.640Z,22.63
2022-09-03T08:23:20.588Z,22.93
2022-09-03T08:24:20.584Z,23.1
2022-09-03T08:25:20.589Z,23.2
2022-09-03T08:26:23.681Z,23.26
2022-09-03T08:27:20.652Z,23.42
2022-09-03T08:28:20.646Z,23.42
2022-09-03T08:29:20.623Z,23.47
2022-09-03T08:30:20.619Z,23.32
2022-09-03T08:31:20.848Z,23.23
2022-09-03T08:32:20.624Z,23.06
2022-09-03T08:33:20.619Z,22.96
2022-09-03T08:34:20.617Z,22.92
2022-09-03T08:35:20.610Z,22.83
2022-09-03T08:36:20.626Z,22.65
2022-09-03T08:37:23.665Z,22.62
2022-09-03T08:38:20.616Z,22.7
2022-09-03T08:39:20.765Z,22.67
2022-09-03T08:40:20.632Z,22.59
2022-09-03T08:41:20.628Z,22.73
2022-09-03T08:42:20.643Z,22.53
2022-09-03T08:43:20.628Z,22.67
2022-09-03T08:44:20.741Z,22.67
2022-09-03T08:45:20.653Z,22.61
2022-09-03T08:46:20.801Z,22.63
2022-09-03T08:47:20.675Z,22.62
2022-09-03T08:48:28.074Z,22.53
2022-09-03T08:49:20.640Z,22.52
2022-09-03T08:50:20.650Z,22.56
2022-09-03T08:51:20.651Z,22.68
2022-09-03T08:52:20.824Z,22.78
2022-09-03T08:53:20.647Z,22.76
2022-09-03T08:54:20.638Z,22.76
2022-09-03T08:55:20.743Z,22.93
2022-09-03T08:56:20.676Z,23.04
2022-09-03T08:57:20.673Z,23.07
2022-09-03T08:58:20.724Z,23.34
2022-09-03T08:59:23.496Z,23.47
2022-09-03T09:00:20.893Z,23.86
2022-09-03T09:01:20.814Z,23.95
2022-09-03T09:02:21.244Z,23.91
2022-09-03T09:03:20.660Z,23.99
2022-09-03T09:04:23.461Z,24.19
2022-09-03T09:05:27.733Z,24.18
2022-09-03T09:06:20.665Z,24.21
2022-09-03T09:07:20.759Z,24.36
2022-09-03T09:08:20.743Z,24.34
2022-09-03T09:09:20.687Z,24.4
2022-09-03T09:10:20.731Z,24.41
2022-09-03T09:11:20.676Z,24.47
2022-09-03T09:12:20.777Z,24.58
2022-09-03T09:13:20.780Z,24.46
2022-09-03T09:14:20.751Z,24.46
2022-09-03T09:15:23.563Z,24.4
2022-09-03T09:16:20.987Z,24.43
2022-09-03T09:17:20.731Z,24.43
2022-09-03T09:18:20.945Z,24.62
2022-09-03T09:19:20.692Z,24.71
2022-09-03T09:20:20.807Z,24.4
2022-09-03T09:21:33.029Z,24.61
2022-09-03T09:22:20.827Z,24.71
2022-09-03T09:23:22.234Z,24.77
2022-09-03T09:24:20.700Z,24.97
2022-09-03T09:25:20.705Z,25.06
2022-09-03T09:26:20.700Z,25.26
2022-09-03T09:27:20.904Z,25.25
2022-09-03T09:28:20.811Z,25.54
2022-09-03T09:29:20.722Z,25.52
2022-09-03T09:30:21.118Z,25.49
2022-09-03T09:31:20.980Z,25.8
2022-09-03T09:32:24.039Z,25.91
2022-09-03T09:33:20.728Z,26.18
2022-09-03T09:34:20.731Z,26.3
2022-09-03T09:35:20.766Z,26.44
2022-09-03T09:36:20.718Z,26.31
2022-09-03T09:37:20.748Z,26.24
2022-09-03T09:38:21.183Z,26.15
2022-09-03T09:39:20.841Z,25.99
2022-09-03T09:40:20.745Z,26.04
2022-09-03T09:41:20.728Z,26.27
2022-09-03T09:42:24.322Z,26.46
2022-09-03T09:43:20.793Z,26.18
2022-09-03T09:44:21.047Z,26.34
2022-09-03T09:45:20.736Z,25.88
2022-09-03T09:46:20.936Z,26.26
2022-09-03T09:47:23.865Z,26.22
2022-09-03T09:48:20.862Z,26.45
2022-09-03T09:49:20.788Z,26.52
2022-09-03T09:50:30.976Z,26.68
2022-09-03T09:51:20.746Z,26.81
2022-09-03T09:52:20.750Z,27.08
2022-09-03T09:53:23.541Z,27.04
2022-09-03T09:54:20.764Z,26.82
2022-09-03T09:55:20.754Z,26.42
2022-09-03T09:56:23.184Z,26.41
2022-09-03T09:57:20.818Z,26.67
2022-09-03T09:58:23.690Z,26.78
2022-09-03T09:59:20.801Z,26.59
2022-09-03T10:00:20.820Z,26.73
2022-09-03T10:01:20.949Z,26.81
2022-09-03T10:02:27.276Z,27.28
2022-09-03T10:03:21.012Z,27.52
2022-09-03T10:04:23.827Z,27.47
2022-09-03T10:05:20.770Z,27.43
2022-09-03T10:06:20.786Z,27.63
2022-09-03T10:07:20.779Z,27.6
2022-09-03T10:08:20.874Z,27.47
2022-09-03T10:09:33.300Z,27.35
2022-09-03T10:10:22.861Z,27.38
2022-09-03T10:11:20.807Z,27.66
2022-09-03T10:12:20.787Z,27.67
2022-09-03T10:13:20.831Z,27.57
2022-09-03T10:14:20.795Z,27.67
2022-09-03T10:15:20.813Z,27.78
2022-09-03T10:16:20.853Z,27.9
2022-09-03T10:17:37.232Z,27.97
2022-09-03T10:18:26.148Z,27.85
2022-09-03T10:19:20.816Z,28.04
2022-09-03T10:20:23.895Z,28.09
2022-09-03T10:21:20.833Z,27.98
2022-09-03T10:22:20.817Z,27.88
2022-09-03T10:23:20.830Z,27.97
2022-09-03T10:24:20.656Z,28.22
2022-09-03T10:25:20.655Z,28.33
2022-09-03T10:26:20.816Z,28.3
2022-09-03T10:27:20.817Z,28.38
2022-09-03T10:28:20.873Z,28.2
2022-09-03T10:29:20.829Z,28.12
2022-09-03T10:30:20.820Z,28.19
2022-09-03T10:31:25.347Z,28.38
2022-09-03T10:32:20.837Z,28.34
2022-09-03T10:33:20.885Z,27.91
2022-09-03T10:34:20.852Z,28.19
2022-09-03T10:35:20.843Z,28.27
2022-09-03T10:36:20.836Z,27.82
2022-09-03T10:37:20.837Z,27.64
2022-09-03T10:38:20.964Z,27.72
2022-09-03T10:39:20.950Z,27.6
2022-09-03T10:40:21.123Z,27.58
2022-09-03T10:41:20.844Z,27.35
2022-09-03T10:42:23.605Z,27.23
2022-09-03T10:43:20.872Z,26.93
2022-09-03T10:44:21.446Z,27.22
2022-09-03T10:45:20.861Z,27
2022-09-03T10:46:26.846Z,27.15
2022-09-03T10:47:20.856Z,26.89
2022-09-03T10:48:21.099Z,26.59
2022-09-03T10:49:20.859Z,26.6
2022-09-03T10:50:21.022Z,26.24
2022-09-03T10:51:20.857Z,26.22
2022-09-03T10:52:20.869Z,26.16
2022-09-03T10:53:24.152Z,26.23
2022-09-03T10:54:20.881Z,25.95
2022-09-03T10:55:20.884Z,26.03
2022-09-03T10:56:20.877Z,25.95
2022-09-03T10:57:20.871Z,26.27
2022-09-03T10:58:20.980Z,26.56
2022-09-03T10:59:20.892Z,26.68
2022-09-03T11:00:20.888Z,26.64
2022-09-03T11:01:21.156Z,26.49
2022-09-03T11:02:21.076Z,26.56
2022-09-03T11:03:25.768Z,26.79
2022-09-03T11:04:23.790Z,26.91
2022-09-03T11:05:20.895Z,26.92
2022-09-03T11:06:20.890Z,27.01
2022-09-03T11:07:20.889Z,27.01
2022-09-03T11:08:21.028Z,26.97
2022-09-03T11:09:20.920Z,26.82
2022-09-03T11:10:20.898Z,26.76
2022-09-03T11:11:20.906Z,26.24
2022-09-03T11:12:20.902Z,26.22
2022-09-03T11:13:20.937Z,26.01
2022-09-03T11:14:20.916Z,26.03
2022-09-03T11:15:28.009Z,25.93
2022-09-03T11:16:21.096Z,25.89
2022-09-03T11:17:20.918Z,25.86
2022-09-03T11:18:20.984Z,26.01
2022-09-03T11:19:20.909Z,25.78
2022-09-03T11:20:20.914Z,25.74
2022-09-03T11:21:20.925Z,25.81
2022-09-03T11:22:25.429Z,25.92
2022-09-03T11:23:22.702Z,25.92
2022-09-03T11:24:20.936Z,25.96
2022-09-03T11:25:20.922Z,26.03
2022-09-03T11:26:23.689Z,26.08
2022-09-03T11:27:20.938Z,26.22
2022-09-03T11:28:21.093Z,26.26
2022-09-03T11:29:22.830Z,25.96
2022-09-03T11:30:20.954Z,25.96
2022-09-03T11:31:21.259Z,25.92
2022-09-03T11:32:20.940Z,25.7
2022-09-03T11:33:20.970Z,25.77
2022-09-03T11:34:36.326Z,25.88
2022-09-03T11:35:20.956Z,26.03
2022-09-03T11:36:20.953Z,26.04
2022-09-03T11:37:21.061Z,26.19
2022-09-03T11:38:21.090Z,26.26
2022-09-03T11:39:21.040Z,26.26
2022-09-03T11:40:20.971Z,26.41
2022-09-03T11:41:20.969Z,26.37
2022-09-03T11:42:23.798Z,26.41
2022-09-03T11:43:20.978Z,26.42
2022-09-03T11:44:20.968Z,26.51
2022-09-03T11:45:20.965Z,26.56
2022-09-03T11:46:21.229Z,26.52
2022-09-03T11:47:20.977Z,26.48
2022-09-03T11:48:21.099Z,26.24
2022-09-03T11:49:20.980Z,26.22
2022-09-03T11:50:21.159Z,26.19
2022-09-03T11:51:20.974Z,26.24
2022-09-03T11:52:20.985Z,26.19
2022-09-03T11:53:21.630Z,26.24
2022-09-03T11:54:21.257Z,26.24
2022-09-03T11:55:21.000Z,26.37
2022-09-03T11:56:21.526Z,26.59
2022-09-03T11:57:21.006Z,26.92
2022-09-03T11:58:21.008Z,27
2022-09-03T11:59:20.997Z,27.11
2022-09-03T12:00:21.004Z,27.37
2022-09-03T12:01:21.146Z,27.52
2022-09-03T12:02:21.152Z,27.58
2022-09-03T12:03:21.060Z,27.67
2022-09-03T12:04:21.107Z,27.66
2022-09-03T12:05:21.009Z,27.71
2022-09-03T12:06:21.010Z,27.66
2022-09-03T12:07:24.694Z,27.95
2022-09-03T12:08:21.029Z,27.73
2022-09-03T12:09:24.139Z,28.04
2022-09-03T12:10:21.016Z,27.98
2022-09-03T12:11:21.007Z,28.23
2022-09-03T12:12:21.016Z,28.25
2022-09-03T12:13:21.285Z,28.27
2022-09-03T12:14:24.022Z,28.27
2022-09-03T12:15:21.034Z,28.1
2022-09-03T12:16:21.267Z,27.9
2022-09-03T12:17:21.025Z,28.03
2022-09-03T12:18:21.044Z,28.04
2022-09-03T12:19:21.036Z,28
2022-09-03T12:20:24.202Z,27.9
2022-09-03T12:21:21.039Z,27.82
2022-09-03T12:22:21.282Z,27.79
2022-09-03T12:23:21.201Z,27.72
2022-09-03T12:24:21.038Z,27.72
2022-09-03T12:25:23.891Z,27.41
2022-09-03T12:26:21.042Z,27.41
2022-09-03T12:27:21.051Z,27.22
2022-09-03T12:28:21.061Z,27.18
2022-09-03T12:29:31.158Z,27.19
2022-09-03T12:30:21.063Z,27.01
2022-09-03T12:31:24.019Z,27.01
2022-09-03T12:32:21.155Z,26.82
2022-09-03T12:33:21.122Z,26.81
2022-09-03T12:34:21.061Z,26.86
2022-09-03T12:36:03.294Z,26.85
2022-09-03T12:36:24.145Z,26.86
2022-09-03T12:38:03.891Z,26.83
2022-09-03T12:38:23.466Z,26.81
2022-09-03T12:40:08.511Z,26.46
2022-09-03T12:40:22.698Z,26.55
2022-09-03T12:41:31.683Z,26.66
2022-09-03T12:42:25.588Z,26.55
2022-09-03T12:43:53.083Z,26.44
2022-09-03T12:44:22.587Z,26.39
2022-09-03T12:45:22.648Z,26.41
2022-09-03T12:46:33.219Z,26.26
2022-09-03T12:47:42.524Z,26.26
2022-09-03T12:48:22.502Z,26.27
2022-09-03T12:49:37.927Z,26.39
2022-09-03T12:50:24.712Z,26.42
2022-09-03T12:52:01.918Z,26.22
2022-09-03T12:52:23.235Z,26.13
2022-09-03T12:53:25.643Z,26.06
2022-09-03T12:54:22.653Z,26.08
2022-09-03T12:55:27.087Z,25.95
2022-09-03T12:56:22.617Z,26.13
2022-09-03T12:57:22.608Z,25.96
2022-09-03T12:58:24.004Z,26.01
2022-09-03T12:59:22.611Z,26.06